createdAt,value
2023-03-07T00:02:19.872Z,1.35
2023-03-07T00:07:22.619Z,1.38
2023-03-07T00:12:25.459Z,1.36
2023-03-07T00:17:29.683Z,1.35
2023-03-07T00:22:32.413Z,1.29
2023-03-07T00:27:35.471Z,1.29
2023-03-07T00:32:39.674Z,1.28
2023-03-07T00:37:42.484Z,1.28
2023-03-07T00:42:45.425Z,1.24
2023-03-07T00:47:49.765Z,1.22
2023-03-07T00:52:52.534Z,1.25
2023-03-07T00:57:55.476Z,1.26
2023-03-07T01:03:02.098Z,1.29
2023-03-07T01:08:04.976Z,1.29
2023-03-07T01:13:09.869Z,1.31
2023-03-07T01:18:14.670Z,1.31
2023-03-07T01:23:17.637Z,1.33
2023-03-07T01:28:20.582Z,1.32
2023-03-07T01:33:25.122Z,1.34
2023-03-07T01:38:33.785Z,1.37
2023-03-07T01:43:38.895Z,1.39
2023-03-07T01:48:51.776Z,1.40
2023-03-07T01:53:56.681Z,1.39
2023-03-07T01:58:59.678Z,1.45
2023-03-07T02:04:10.379Z,1.56
2023-03-07T02:09:17.969Z,1.58
2023-03-07T02:14:20.781Z,1.64
2023-03-07T02:19:38.445Z,1.68
2023-03-07T02:24:49.294Z,1.71
2023-03-07T02:29:53.867Z,1.70
2023-03-07T02:34:57.287Z,1.74
2023-03-07T02:40:05.194Z,1.77
2023-03-07T02:45:12.485Z,1.80
2023-03-07T02:50:18.261Z,1.82
2023-03-07T02:55:25.264Z,1.82
2023-03-07T03:00:37.038Z,1.85
2023-03-07T03:05:40.104Z,1.88
2023-03-07T03:10:43.057Z,1.92
2023-03-07T03:15:48.177Z,1.95
2023-03-07T03:20:51.336Z,1.97
2023-03-07T03:25:59.321Z,2.06
2023-03-07T03:31:07.242Z,2.10
2023-03-07T03:36:11.882Z,2.13
2023-03-07T03:41:16.946Z,2.15
2023-03-07T03:46:22.563Z,2.13
2023-03-07T03:51:26.200Z,2.15
2023-03-07T03:56:30.664Z,2.19
2023-03-07T04:01:35.016Z,2.21
2023-03-07T04:06:38.044Z,2.26
2023-03-07T04:11:40.958Z,2.31
2023-03-07T04:16:45.236Z,2.32
2023-03-07T04:21:48.096Z,2.33
2023-03-07T04:26:52.502Z,2.32
2023-03-07T04:31:57.482Z,2.34
2023-03-07T04:37:00.445Z,2.32
2023-03-07T04:42:03.341Z,2.32
2023-03-07T04:47:12.314Z,2.36
2023-03-07T04:52:15.182Z,2.37
2023-03-07T04:57:18.327Z,2.34
2023-03-07T05:02:22.915Z,2.34
2023-03-07T05:07:28.997Z,2.35
2023-03-07T05:12:32.257Z,2.39
2023-03-07T05:17:38.108Z,2.38
2023-03-07T05:22:41.145Z,2.40
2023-03-07T05:27:44.369Z,2.41
2023-03-07T05:32:48.887Z,2.43
2023-03-07T05:37:52.516Z,2.44
2023-03-07T05:42:56.019Z,2.46
2023-03-07T05:48:00.733Z,2.47
2023-03-07T05:53:04.395Z,2.47
2023-03-07T05:58:07.937Z,2.47
2023-03-07T06:03:12.276Z,2.49
2023-03-07T06:08:15.892Z,2.52
2023-03-07T06:13:21.405Z,2.56
2023-03-07T06:18:26.404Z,2.59
2023-03-07T06:23:31.331Z,2.60
2023-03-07T06:28:37.422Z,2.67
2023-03-07T06:33:42.077Z,2.68
2023-03-07T06:38:45.289Z,2.69
2023-03-07T06:43:52.492Z,2.73
2023-03-07T06:49:01.025Z,2.75
2023-03-07T06:54:04.489Z,2.81
2023-03-07T06:59:07.968Z,2.86
2023-03-07T07:04:13.961Z,2.89
2023-03-07T07:09:19.686Z,2.97
2023-03-07T07:14:23.605Z,3.03
2023-03-07T07:19:29.166Z,3.08
2023-03-07T07:24:35.052Z,3.13
2023-03-07T07:29:37.848Z,3.20
2023-03-07T07:34:43.977Z,3.25
2023-03-07T07:39:47.164Z,3.26
2023-03-07T07:44:50.452Z,3.34
2023-03-07T07:49:54.697Z,3.38
2023-03-07T07:54:58.046Z,3.45
2023-03-07T08:00:01.051Z,3.55
2023-03-07T08:05:08.103Z,3.59
2023-03-07T08:10:13.475Z,3.62
2023-03-07T08:15:19.940Z,3.64
2023-03-07T08:20:25.654Z,3.67
2023-03-07T08:25:28.556Z,3.75
2023-03-07T08:30:34.018Z,3.88
2023-03-07T08:35:40.101Z,3.94
2023-03-07T08:40:44.504Z,3.97
2023-03-07T08:45:51.392Z,4.09
2023-03-07T08:50:55.849Z,4.10
2023-03-07T08:56:00.820Z,4.22
2023-03-07T09:01:05.061Z,4.33
2023-03-07T09:06:10.706Z,4.23
2023-03-07T09:11:13.879Z,4.25
2023-03-07T09:16:16.737Z,4.22
2023-03-07T09:21:21.407Z,4.23
2023-03-07T09:26:25.076Z,4.20
2023-03-07T09:31:27.912Z,4.23
2023-03-07T09:36:33.045Z,4.33
2023-03-07T09:41:57.002Z,4.45
2023-03-07T09:47:13.430Z,4.30
2023-03-07T09:52:21.162Z,4.27
2023-03-07T09:57:27.552Z,4.44
2023-03-07T10:02:36.157Z,4.70
2023-03-07T10:07:41.158Z,4.63
2023-03-07T10:12:57.969Z,4.52
2023-03-07T10:18:18.045Z,4.72
2023-03-07T10:23:44.350Z,4.71
2023-03-07T10:28:49.269Z,5.13
2023-03-07T10:33:54.893Z,5.34
2023-03-07T10:39:04.277Z,5.31
2023-03-07T10:44:16.105Z,5.52
2023-03-07T10:49:24.110Z,5.72
2023-03-07T10:54:33.180Z,5.64
2023-03-07T10:59:37.314Z,5.73
2023-03-07T11:04:48.151Z,5.92
2023-03-07T11:09:52.381Z,5.90
2023-03-07T11:14:57.984Z,5.85
2023-03-07T11:20:00.798Z,5.82
2023-03-07T11:25:15.749Z,5.91
2023-03-07T11:30:26.241Z,5.75
2023-03-07T11:35:44.074Z,5.71
2023-03-07T11:40:57.306Z,5.56
2023-03-07T11:46:07.040Z,5.71
2023-03-07T11:51:31.744Z,5.89
2023-03-07T11:56:40.869Z,5.96
2023-03-07T12:01:48.866Z,6.16
2023-03-07T12:07:02.678Z,6.04
2023-03-07T12:12:21.536Z,6.21
2023-03-07T12:17:40.132Z,6.07
2023-03-07T12:22:54.149Z,5.93
2023-03-07T12:28:06.933Z,5.93
2023-03-07T12:33:19.029Z,6.10
2023-03-07T12:38:36.570Z,5.91
2023-03-07T12:43:47.437Z,6.06
2023-03-07T12:48:56.188Z,6.15
2023-03-07T12:54:04.545Z,6.13
2023-03-07T12:59:13.879Z,6.10
2023-03-07T13:04:19.407Z,6.23
2023-03-07T13:09:25.570Z,6.19
2023-03-07T13:14:45.411Z,6.22
2023-03-07T13:19:54.524Z,6.46
2023-03-07T13:24:59.162Z,6.26
2023-03-07T13:30:22.980Z,6.06
2023-03-07T13:35:53.566Z,5.93
2023-03-07T13:40:58.579Z,6.03
2023-03-07T13:46:04.272Z,5.90
2023-03-07T13:51:09.129Z,5.85
2023-03-07T13:56:25.214Z,6.03
2023-03-07T14:01:33.726Z,6.15
2023-03-07T14:06:41.749Z,6.27
2023-03-07T14:11:54.644Z,6.41
2023-03-07T14:17:17.212Z,6.43
2023-03-07T14:22:34.560Z,6.55
2023-03-07T14:27:51.402Z,6.45
2023-03-07T14:32:56.766Z,6.17
2023-03-07T14:37:59.562Z,6.21
2023-03-07T14:43:27.109Z,6.11
2023-03-07T14:49:01.364Z,6.03
2023-03-07T14:54:09.208Z,6.02
2023-03-07T14:59:26.306Z,5.90
2023-03-07T15:04:35.737Z,5.80
2023-03-07T15:09:38.705Z,5.76
2023-03-07T15:14:45.467Z,5.73
2023-03-07T15:19:53.714Z,5.67
2023-03-07T15:24:57.534Z,5.64
2023-03-07T15:30:02.172Z,5.53
2023-03-07T15:35:17.767Z,5.46
2023-03-07T15:40:28.197Z,5.47
2023-03-07T15:45:33.295Z,5.44
2023-03-07T15:50:38.821Z,5.39
2023-03-07T15:55:56.813Z,5.37
2023-03-07T16:01:07.816Z,5.40
2023-03-07T16:06:41.257Z,5.35
2023-03-07T16:11:46.052Z,5.35
2023-03-07T16:16:49.454Z,5.34
2023-03-07T16:21:54.606Z,5.35
2023-03-07T16:26:57.920Z,5.35
2023-03-07T16:32:01.984Z,5.30
2023-03-07T16:37:06.504Z,5.28
2023-03-07T16:42:17.288Z,5.28
2023-03-07T16:47:20.671Z,5.24
2023-03-07T16:52:25.807Z,5.19
2023-03-07T16:57:28.673Z,5.16
2023-03-07T17:02:32.749Z,5.05
2023-03-07T17:07:37.324Z,4.94
2023-03-07T17:12:42.523Z,4.91
2023-03-07T17:17:46.367Z,4.73
2023-03-07T17:22:52.074Z,4.42
2023-03-07T17:28:00.598Z,3.80
2023-03-07T17:33:03.808Z,3.31
2023-03-07T17:38:08.276Z,3.07
2023-03-07T17:43:11.723Z,2.77
2023-03-07T17:48:14.593Z,2.46
2023-03-07T17:53:18.881Z,2.35
2023-03-07T17:58:21.870Z,2.19
2023-03-07T18:03:24.823Z,2.06
2023-03-07T18:08:29.388Z,1.94
2023-03-07T18:13:33.402Z,1.89
2023-03-07T18:18:40.201Z,1.87
2023-03-07T18:23:48.349Z,1.85
2023-03-07T18:28:53.303Z,1.75
2023-03-07T18:33:56.438Z,1.71
2023-03-07T18:39:01.109Z,1.62
2023-03-07T18:44:05.514Z,1.56
2023-03-07T18:49:08.374Z,1.55
2023-03-07T18:54:14.126Z,1.52
2023-03-07T18:59:17.779Z,1.45
2023-03-07T19:04:21.392Z,1.42
2023-03-07T19:09:26.669Z,1.42
2023-03-07T19:14:29.885Z,1.39
2023-03-07T19:19:33.477Z,1.35
2023-03-07T19:24:38.082Z,1.31
2023-03-07T19:29:40.998Z,1.34
2023-03-07T19:34:44.406Z,1.35
2023-03-07T19:39:53.941Z,1.32
2023-03-07T19:44:56.900Z,1.31
2023-03-07T19:49:59.727Z,1.24
2023-03-07T19:55:06.484Z,1.21
2023-03-07T20:00:12.652Z,1.23
2023-03-07T20:05:17.256Z,1.21
2023-03-07T20:10:23.678Z,1.19
2023-03-07T20:15:28.739Z,1.25
2023-03-07T20:20:36.664Z,1.21
2023-03-07T20:25:42.844Z,1.22
2023-03-07T20:30:47.747Z,1.16
2023-03-07T20:36:02.168Z,1.18
2023-03-07T20:41:11.004Z,1.17
2023-03-07T20:46:19.765Z,1.16
2023-03-07T20:51:28.463Z,1.14
2023-03-07T20:56:36.274Z,1.14
2023-03-07T21:01:42.071Z,1.12
2023-03-07T21:06:50.524Z,1.14
2023-03-07T21:11:56.473Z,1.12
2023-03-07T21:17:03.173Z,1.11
2023-03-07T21:22:07.837Z,1.13
2023-03-07T21:27:14.687Z,1.13
2023-03-07T21:32:18.289Z,1.17
2023-03-07T21:37:22.128Z,1.16
2023-03-07T21:42:27.722Z,1.18
2023-03-07T21:47:31.109Z,1.17
2023-03-07T21:52:34.045Z,1.16
2023-03-07T21:57:38.742Z,1.18
2023-03-07T22:02:41.715Z,1.19
2023-03-07T22:07:44.944Z,1.16
2023-03-07T22:12:49.704Z,1.16
2023-03-07T22:17:52.608Z,1.15
2023-03-07T22:22:55.387Z,1.13
2023-03-07T22:27:59.658Z,1.11
2023-03-07T22:33:03.022Z,1.07
2023-03-07T22:38:06.107Z,1.07
2023-03-07T22:43:12.617Z,1.02
2023-03-07T22:48:16.660Z,0.97
2023-03-07T22:53:19.668Z,0.91
2023-03-07T22:58:24.692Z,0.91
2023-03-07T23:03:27.484Z,0.89
2023-03-07T23:08:30.400Z,0.87
2023-03-07T23:13:35.152Z,0.88
2023-03-07T23:18:39.034Z,0.84
2023-03-07T23:23:42.888Z,0.84
2023-03-07T23:28:47.320Z,0.83
2023-03-07T23:33:50.276Z,0.79
2023-03-07T23:38:53.265Z,0.70
2023-03-07T23:44:00.069Z,0.66
2023-03-07T23:49:02.962Z,0.65
2023-03-07T23:54:05.739Z,0.69
2023-03-07T23:59:10.215Z,0.66
